Terminal Aerodrome Forecast
Issued by NWS Sterling, VA

Current Version | Previous Version | Graphics & Text | Print | Product List | Glossary On
Versions: 1 2 3 4 5 6 7 8 9 10 11 12 13 14 15 16 17 18 19 20 21 22 23
222
FTUS41 KLWX 191501 AAA
TAFIAD
TAF AMD
KIAD 191501Z 1915/2018 31013G21KT P6SM SCT100
     FM200000 31007KT P6SM FEW250
     FM201400 35008KT P6SM FEW140=

USA.gov is the U.S. government's official web portal to all federal, state and local government web resources and services.